createdAt,value
2022-07-25T00:01:54.577Z,6.13
2022-07-25T00:04:21.529Z,5.55
2022-07-25T00:06:49.261Z,5.60
2022-07-25T00:09:16.285Z,5.60
2022-07-25T00:11:43.118Z,5.70
2022-07-25T00:14:10.456Z,5.70
2022-07-25T00:16:37.533Z,5.57
2022-07-25T00:19:04.402Z,5.78
2022-07-25T00:21:31.287Z,5.90
2022-07-25T00:23:58.253Z,5.20
2022-07-25T00:26:25.069Z,5.43
2022-07-25T00:28:51.848Z,5.50
2022-07-25T00:31:18.893Z,5.55
2022-07-25T00:33:45.776Z,5.65
2022-07-25T00:36:13.432Z,6.03
2022-07-25T00:38:40.274Z,5.65
2022-07-25T00:41:07.094Z,5.90
2022-07-25T00:43:33.878Z,5.72
2022-07-25T00:46:00.767Z,5.43
2022-07-25T00:48:29.163Z,5.75
2022-07-25T00:50:56.788Z,6.07
2022-07-25T00:53:25.311Z,5.80
2022-07-25T00:55:52.812Z,5.53
2022-07-25T00:58:19.695Z,5.75
2022-07-25T01:00:47.386Z,5.80
2022-07-25T01:03:14.354Z,6.28
2022-07-25T01:05:41.283Z,5.88
2022-07-25T01:08:08.908Z,5.35
2022-07-25T01:10:36.431Z,6.20
2022-07-25T01:13:03.423Z,5.78
2022-07-25T01:15:30.460Z,5.25
2022-07-25T01:17:57.359Z,5.90
2022-07-25T01:20:25.848Z,5.55
2022-07-25T01:22:52.955Z,5.63
2022-07-25T01:25:20.550Z,5.60
2022-07-25T01:27:52.951Z,5.47
2022-07-25T01:30:23.659Z,5.10
2022-07-25T01:32:50.929Z,5.88
2022-07-25T01:35:17.851Z,5.63
2022-07-25T01:37:45.508Z,6.03
2022-07-25T01:40:13.070Z,5.68
2022-07-25T01:42:40.076Z,6.22
2022-07-25T01:45:07.691Z,5.78
2022-07-25T01:47:34.483Z,5.60
2022-07-25T01:50:01.379Z,5.28
2022-07-25T01:52:28.731Z,5.40
2022-07-25T01:54:55.560Z,5.30
2022-07-25T01:57:24.368Z,6.22
2022-07-25T01:59:57.946Z,5.38
2022-07-25T02:02:24.700Z,5.70
2022-07-25T02:04:51.663Z,5.50
2022-07-25T02:07:18.478Z,5.95
2022-07-25T02:09:45.252Z,5.72
2022-07-25T02:12:12.223Z,6.00
2022-07-25T02:14:39.159Z,5.78
2022-07-25T02:17:07.133Z,5.63
2022-07-25T02:19:34.361Z,5.90
2022-07-25T02:22:01.319Z,6.25
2022-07-25T02:24:28.309Z,5.55
2022-07-25T02:26:55.116Z,5.78
2022-07-25T02:29:22.319Z,5.70
2022-07-25T02:31:49.341Z,5.93
2022-07-25T02:34:16.556Z,5.60
2022-07-25T02:36:43.493Z,6.10
2022-07-25T02:39:10.339Z,6.07
2022-07-25T02:41:37.206Z,6.15
2022-07-25T02:44:05.515Z,5.80
2022-07-25T02:46:33.130Z,5.90
2022-07-25T02:49:00.127Z,5.70
2022-07-25T02:51:27.008Z,5.90
2022-07-25T02:53:57.582Z,6.63
2022-07-25T02:56:26.217Z,6.00
2022-07-25T02:58:57.352Z,5.82
2022-07-25T03:01:24.380Z,5.70
2022-07-25T03:03:51.370Z,6.20
2022-07-25T03:06:18.226Z,6.28
2022-07-25T03:08:45.115Z,5.78
2022-07-25T03:11:13.276Z,6.07
2022-07-25T03:13:40.415Z,5.82
2022-07-25T03:16:08.050Z,5.82
2022-07-25T03:18:34.821Z,5.78
2022-07-25T03:21:01.660Z,6.13
2022-07-25T03:23:28.630Z,5.95
2022-07-25T03:25:56.146Z,6.57
2022-07-25T03:28:24.668Z,6.38
2022-07-25T03:30:52.212Z,6.38
2022-07-25T03:33:19.217Z,6.30
2022-07-25T03:35:46.222Z,6.07
2022-07-25T03:38:12.986Z,5.85
2022-07-25T03:40:39.826Z,6.13
2022-07-25T03:43:06.823Z,5.97
2022-07-25T03:45:33.686Z,6.40
2022-07-25T03:48:00.517Z,6.25
2022-07-25T03:50:27.354Z,6.05
2022-07-25T03:52:54.130Z,6.40
2022-07-25T03:55:21.024Z,6.03
2022-07-25T03:57:47.778Z,6.43
2022-07-25T04:00:14.820Z,6.45
2022-07-25T04:02:41.762Z,6.25
2022-07-25T04:05:08.948Z,6.32
2022-07-25T04:07:37.004Z,6.75
2022-07-25T04:10:05.998Z,6.93
2022-07-25T04:12:32.959Z,7.00
2022-07-25T04:15:00.076Z,6.80
2022-07-25T04:17:26.874Z,6.95
2022-07-25T04:19:53.822Z,7.18
2022-07-25T04:22:20.710Z,7.18
2022-07-25T04:24:47.494Z,7.30
2022-07-25T04:27:14.267Z,7.28
2022-07-25T04:29:41.086Z,7.20
2022-07-25T04:32:08.083Z,7.50
2022-07-25T04:34:34.956Z,6.85
2022-07-25T04:37:01.789Z,7.28
2022-07-25T04:39:28.700Z,7.05
2022-07-25T04:41:55.454Z,6.80
2022-07-25T04:44:22.255Z,6.75
2022-07-25T04:46:49.025Z,7.43
2022-07-25T04:49:15.881Z,7.90
2022-07-25T04:51:42.772Z,7.07
2022-07-25T04:54:10.166Z,7.25
2022-07-25T04:56:37.207Z,7.35
2022-07-25T04:59:06.792Z,6.93
2022-07-25T05:01:34.940Z,7.18
2022-07-25T05:04:01.912Z,6.75
2022-07-25T05:06:28.823Z,6.43
2022-07-25T05:08:55.788Z,6.65
2022-07-25T05:11:22.617Z,6.78
2022-07-25T05:13:49.469Z,7.45
2022-07-25T05:16:16.797Z,7.35
2022-07-25T05:18:43.599Z,6.90
2022-07-25T05:21:14.198Z,6.78
2022-07-25T05:23:41.175Z,7.10
2022-07-25T05:26:08.025Z,7.28
2022-07-25T05:28:46.726Z,7.25
2022-07-25T05:31:25.722Z,6.82
2022-07-25T05:34:09.868Z,7.10
2022-07-25T05:39:30.709Z,6.68
2022-07-25T05:41:57.615Z,7.03
2022-07-25T05:44:24.558Z,6.28
2022-07-25T05:46:51.567Z,6.47
2022-07-25T05:49:18.649Z,6.50
2022-07-25T05:51:45.659Z,6.50
2022-07-25T05:54:12.611Z,6.95
2022-07-25T05:56:39.505Z,6.05
2022-07-25T05:59:06.545Z,6.65
2022-07-25T06:01:33.524Z,6.10
2022-07-25T06:04:00.443Z,6.95
2022-07-25T06:06:27.396Z,5.95
2022-07-25T06:08:54.244Z,5.90
2022-07-25T06:11:21.297Z,5.80
2022-07-25T06:13:48.149Z,5.90
2022-07-25T06:16:15.400Z,5.78
2022-07-25T06:18:42.377Z,6.10
2022-07-25T06:21:09.204Z,6.55
2022-07-25T06:23:36.097Z,6.75
2022-07-25T06:26:03.021Z,6.20
2022-07-25T06:28:30.082Z,5.97
2022-07-25T06:30:57.019Z,6.40
2022-07-25T06:33:24.066Z,6.25
2022-07-25T06:35:51.093Z,6.10
2022-07-25T06:38:17.970Z,6.30
2022-07-25T06:40:44.962Z,6.18
2022-07-25T06:43:11.929Z,6.00
2022-07-25T06:45:38.896Z,6.05
2022-07-25T06:48:06.105Z,5.72
2022-07-25T06:50:42.236Z,5.57
2022-07-25T06:53:09.250Z,6.13
2022-07-25T06:55:36.246Z,6.03
2022-07-25T06:58:03.579Z,6.03
2022-07-25T07:00:30.727Z,5.15
2022-07-25T07:03:01.434Z,6.22
2022-07-25T07:05:31.064Z,5.85
2022-07-25T07:07:58.725Z,6.30
2022-07-25T07:10:34.992Z,6.22
2022-07-25T07:13:13.456Z,6.03
2022-07-25T07:15:45.889Z,6.18
2022-07-25T07:18:13.160Z,6.17
2022-07-25T07:20:40.164Z,6.55
2022-07-25T07:23:07.162Z,6.60
2022-07-25T07:25:36.408Z,6.93
2022-07-25T07:28:04.290Z,6.75
2022-07-25T07:30:58.600Z,6.65
2022-07-25T07:33:23.125Z,6.13
2022-07-25T07:36:02.546Z,6.63
2022-07-25T07:38:30.493Z,6.82
2022-07-25T07:40:57.960Z,6.07
2022-07-25T07:43:29.612Z,6.18
2022-07-25T07:46:02.725Z,6.97
2022-07-25T07:48:31.138Z,6.88
2022-07-25T07:51:02.030Z,7.32
2022-07-25T07:53:48.093Z,6.40
2022-07-25T07:56:18.074Z,6.38
2022-07-25T07:58:45.482Z,6.40
2022-07-25T08:01:12.402Z,6.57
2022-07-25T08:03:39.365Z,6.32
2022-07-25T08:06:06.548Z,6.32
2022-07-25T08:08:33.585Z,6.55
2022-07-25T08:11:00.668Z,6.00
2022-07-25T08:13:30.716Z,5.90
2022-07-25T08:15:59.471Z,6.95
2022-07-25T08:18:30.008Z,6.38
2022-07-25T08:20:57.432Z,6.75
2022-07-25T08:23:27.929Z,6.15
2022-07-25T08:25:55.167Z,6.57
2022-07-25T08:28:22.088Z,5.70
2022-07-25T08:30:49.370Z,5.90
2022-07-25T08:33:16.561Z,6.35
2022-07-25T08:35:54.869Z,6.65
2022-07-25T08:38:23.856Z,5.47
2022-07-25T08:40:51.415Z,6.40
2022-07-25T08:43:18.854Z,6.38
2022-07-25T08:45:48.068Z,5.82
2022-07-25T08:48:18.585Z,5.72
2022-07-25T08:50:46.756Z,5.80
2022-07-25T08:53:35.100Z,6.10
2022-07-25T08:56:12.160Z,5.70
2022-07-25T08:58:44.536Z,6.13
2022-07-25T09:01:12.844Z,6.22
2022-07-25T09:03:40.468Z,5.70
2022-07-25T09:06:21.057Z,5.80
2022-07-25T09:08:55.987Z,5.28
2022-07-25T09:11:37.511Z,5.90
2022-07-25T09:14:11.404Z,6.10
2022-07-25T09:16:44.611Z,6.25
2022-07-25T09:19:21.919Z,6.55
2022-07-25T09:22:18.128Z,6.43
2022-07-25T09:24:45.837Z,6.05
2022-07-25T09:27:13.161Z,5.93
2022-07-25T09:29:42.712Z,5.97
2022-07-25T09:32:22.087Z,5.95
2022-07-25T09:34:50.454Z,5.80
2022-07-25T09:37:19.713Z,5.78
2022-07-25T09:39:49.724Z,5.85
2022-07-25T09:42:19.893Z,5.50
2022-07-25T09:45:10.011Z,5.65
2022-07-25T09:47:52.089Z,5.50
2022-07-25T09:50:20.608Z,5.63
2022-07-25T09:52:47.681Z,9.02
2022-07-25T09:55:15.750Z,10.55
2022-07-25T09:57:45.125Z,6.10
2022-07-25T10:00:19.590Z,6.28
2022-07-25T10:02:52.423Z,5.00
2022-07-25T10:05:44.413Z,5.15
2022-07-25T10:08:12.406Z,4.47
2022-07-25T10:10:41.524Z,4.15
2022-07-25T10:13:18.058Z,4.40
2022-07-25T10:15:50.747Z,4.18
2022-07-25T10:18:26.406Z,3.35
2022-07-25T10:21:24.983Z,2.33
2022-07-25T10:24:02.655Z,2.60
2022-07-25T10:26:30.551Z,2.28
2022-07-25T10:28:58.528Z,2.70
2022-07-25T10:31:41.564Z,2.50
2022-07-25T10:34:11.462Z,2.33
2022-07-25T10:36:48.434Z,2.83
2022-07-25T10:39:19.433Z,2.42
2022-07-25T10:41:55.801Z,2.72
2022-07-25T10:44:23.129Z,2.90
2022-07-25T10:46:50.381Z,3.20
2022-07-25T10:49:31.939Z,2.60
2022-07-25T10:52:06.799Z,2.60
2022-07-25T10:54:38.757Z,2.63
2022-07-25T10:57:13.862Z,2.55
2022-07-25T10:59:41.230Z,2.60
2022-07-25T11:02:19.396Z,2.30
2022-07-25T11:05:06.743Z,2.50
2022-07-25T11:07:36.403Z,2.90
2022-07-25T11:10:06.089Z,2.92
2022-07-25T11:12:33.532Z,2.97
2022-07-25T11:15:05.505Z,2.50
2022-07-25T11:17:32.582Z,2.45
2022-07-25T11:20:06.148Z,2.72
2022-07-25T11:22:33.345Z,2.67
2022-07-25T11:25:01.380Z,2.70
2022-07-25T11:27:33.693Z,2.88
2022-07-25T11:30:21.830Z,3.00
2022-07-25T11:32:54.270Z,2.95
2022-07-25T11:35:25.155Z,2.63
2022-07-25T11:37:53.598Z,2.78
2022-07-25T11:40:22.747Z,2.60
2022-07-25T11:42:55.462Z,2.40
2022-07-25T11:45:33.837Z,2.70
2022-07-25T11:48:09.777Z,2.55
2022-07-25T11:50:39.518Z,2.70
2022-07-25T11:53:09.422Z,2.70
2022-07-25T11:55:41.011Z,2.92
2022-07-25T11:58:13.898Z,2.67
2022-07-25T12:00:43.065Z,2.60
2022-07-25T12:03:19.970Z,2.28
2022-07-25T12:05:48.665Z,2.33
2022-07-25T12:08:18.379Z,2.72
2022-07-25T12:10:51.543Z,2.72
2022-07-25T12:13:30.070Z,2.60
2022-07-25T12:15:58.219Z,3.00
2022-07-25T12:18:25.543Z,2.65
2022-07-25T12:20:53.329Z,2.78
2022-07-25T12:23:23.952Z,2.53
2022-07-25T12:25:51.089Z,2.10
2022-07-25T12:28:18.131Z,2.17
2022-07-25T12:30:54.324Z,2.22
2022-07-25T12:33:23.691Z,2.33
2022-07-25T12:35:51.108Z,2.45
2022-07-25T12:38:18.150Z,2.40
2022-07-25T12:40:45.791Z,2.42
2022-07-25T12:43:15.320Z,2.90
2022-07-25T12:45:42.720Z,2.40
2022-07-25T12:48:10.339Z,3.00
2022-07-25T12:50:37.392Z,2.50
2022-07-25T12:53:04.628Z,2.30
2022-07-25T12:55:31.873Z,2.83
2022-07-25T12:57:59.225Z,2.90
2022-07-25T13:00:26.450Z,2.92
2022-07-25T13:02:56.180Z,3.00
2022-07-25T13:05:25.637Z,2.88
2022-07-25T13:07:52.759Z,2.85
2022-07-25T13:10:22.907Z,3.15
2022-07-25T13:12:49.981Z,2.90
2022-07-25T13:15:20.711Z,3.20
2022-07-25T13:17:47.806Z,3.50
2022-07-25T13:20:15.750Z,3.28
2022-07-25T13:22:42.872Z,3.20
2022-07-25T13:25:09.823Z,3.25
2022-07-25T13:27:37.833Z,3.50
2022-07-25T13:30:06.824Z,3.42
2022-07-25T13:32:34.964Z,3.60
2022-07-25T13:35:01.991Z,3.53
2022-07-25T13:37:29.025Z,3.70
2022-07-25T13:39:56.024Z,3.58
2022-07-25T13:42:23.004Z,3.40
2022-07-25T13:44:50.039Z,3.72
2022-07-25T13:47:19.755Z,3.40
2022-07-25T13:49:46.851Z,3.72
2022-07-25T13:52:13.865Z,3.55
2022-07-25T13:54:40.876Z,3.95
2022-07-25T13:57:09.655Z,3.35
2022-07-25T13:59:36.920Z,3.72
2022-07-25T14:02:06.541Z,3.90
2022-07-25T14:04:33.586Z,3.90
2022-07-25T14:07:00.952Z,4.22
2022-07-25T14:09:35.522Z,4.30
2022-07-25T14:12:04.362Z,3.90
2022-07-25T14:14:31.313Z,3.92
2022-07-25T14:16:58.294Z,3.95
2022-07-25T14:19:25.622Z,3.80
2022-07-25T14:21:52.707Z,4.03
2022-07-25T14:24:19.667Z,4.20
2022-07-25T14:26:46.745Z,4.03
2022-07-25T14:29:14.555Z,4.03
2022-07-25T14:31:41.658Z,3.75
2022-07-25T14:34:08.794Z,4.47
2022-07-25T14:36:36.940Z,4.05
2022-07-25T14:39:05.252Z,4.30
2022-07-25T14:41:32.893Z,3.90
2022-07-25T14:43:59.967Z,3.90
2022-07-25T14:46:27.672Z,4.65
2022-07-25T14:48:54.681Z,3.95
2022-07-25T14:51:21.968Z,4.13
2022-07-25T14:53:53.112Z,4.18
2022-07-25T14:56:20.756Z,4.10
2022-07-25T14:58:50.365Z,4.18
2022-07-25T15:01:19.117Z,4.40
2022-07-25T15:03:50.599Z,3.88
2022-07-25T15:06:17.769Z,4.28
2022-07-25T15:08:45.471Z,4.30
2022-07-25T15:11:15.464Z,3.78
2022-07-25T15:13:42.474Z,4.25
2022-07-25T15:16:10.071Z,3.85
2022-07-25T15:18:58.585Z,4.25
2022-07-25T15:21:26.589Z,4.10
2022-07-25T15:24:00.978Z,3.53
2022-07-25T15:26:28.309Z,3.92
2022-07-25T15:28:56.408Z,4.03
2022-07-25T15:31:24.764Z,3.72
2022-07-25T15:33:53.756Z,3.78
2022-07-25T15:36:25.731Z,4.03
2022-07-25T15:38:55.964Z,3.80
2022-07-25T15:41:23.364Z,3.92
2022-07-25T15:43:50.311Z,3.95
2022-07-25T15:46:17.454Z,4.00
2022-07-25T15:48:44.950Z,3.72
2022-07-25T15:51:12.076Z,4.00
2022-07-25T15:57:41.246Z,4.35
2022-07-25T16:00:09.618Z,4.13
2022-07-25T16:02:36.623Z,3.80
2022-07-25T16:05:04.215Z,4.20
2022-07-25T16:07:31.513Z,4.38
2022-07-25T16:09:59.340Z,3.95
2022-07-25T16:12:28.757Z,4.28
2022-07-25T16:14:57.049Z,4.18
2022-07-25T16:17:25.988Z,3.63
2022-07-25T16:19:55.716Z,3.72
2022-07-25T16:22:23.165Z,3.88
2022-07-25T16:24:50.485Z,4.15
2022-07-25T16:27:18.540Z,3.92
2022-07-25T16:29:47.857Z,4.00
2022-07-25T16:32:14.904Z,4.60
2022-07-25T16:34:47.810Z,4.00
2022-07-25T16:39:41.889Z,4.35
2022-07-25T16:42:09.354Z,4.38
2022-07-25T16:44:36.272Z,4.30
2022-07-25T16:47:03.647Z,4.10
2022-07-25T16:49:30.917Z,4.30
2022-07-25T16:51:57.964Z,4.28
2022-07-25T16:54:25.163Z,4.15
2022-07-25T16:56:59.400Z,4.57
2022-07-25T16:59:26.990Z,4.55
2022-07-25T17:01:55.116Z,3.78
2022-07-25T17:04:23.825Z,3.92
2022-07-25T17:06:51.618Z,4.10
2022-07-25T17:09:19.666Z,3.45
2022-07-25T17:11:48.536Z,4.32
2022-07-25T17:14:30.327Z,3.63
2022-07-25T17:17:07.051Z,3.72
2022-07-25T17:19:47.915Z,3.65
2022-07-25T17:22:24.023Z,3.60
2022-07-25T17:24:55.596Z,3.40
2022-07-25T17:27:28.740Z,3.70
2022-07-25T17:30:01.095Z,3.35
2022-07-25T17:32:32.881Z,3.20
2022-07-25T17:35:14.483Z,3.20
2022-07-25T17:48:29.655Z,3.38
2022-07-25T17:50:58.622Z,3.17
2022-07-25T17:53:28.552Z,3.40
2022-07-25T17:55:57.469Z,3.15
2022-07-25T17:58:24.343Z,3.03
2022-07-25T18:00:51.131Z,3.28
2022-07-25T18:03:21.754Z,3.83
2022-07-25T18:05:48.772Z,3.28
2022-07-25T18:08:15.681Z,2.90
2022-07-25T18:10:42.644Z,3.50
2022-07-25T18:13:11.359Z,3.50
2022-07-25T18:16:32.185Z,3.53
2022-07-25T18:21:53.431Z,4.25
2022-07-25T18:28:44.411Z,3.83
2022-07-25T18:32:01.754Z,3.72
2022-07-25T18:35:18.001Z,3.63
2022-07-25T18:37:45.030Z,3.30
2022-07-25T18:44:45.898Z,3.13
2022-07-25T18:47:28.965Z,2.80
2022-07-25T18:55:09.166Z,2.88
2022-07-25T19:16:22.450Z,2.05
2022-07-25T19:24:38.597Z,1.92
2022-07-25T19:38:02.622Z,2.13
2022-07-25T19:40:31.894Z,1.83
2022-07-25T19:43:03.498Z,1.83
2022-07-25T19:45:32.865Z,1.95
2022-07-25T19:48:51.108Z,1.98
2022-07-25T19:56:19.074Z,2.30
2022-07-25T20:19:37.691Z,1.60
2022-07-25T20:22:24.092Z,1.80
2022-07-25T20:25:09.185Z,1.63
2022-07-25T20:48:28.629Z,1.65
2022-07-25T20:51:59.057Z,1.53
2022-07-25T20:55:00.207Z,1.80
2022-07-25T20:57:35.057Z,1.67
2022-07-25T21:00:16.856Z,1.48
2022-07-25T21:06:58.193Z,1.52
2022-07-25T21:09:32.510Z,1.40
2022-07-25T21:13:21.114Z,1.30
2022-07-25T21:16:42.396Z,1.50
2022-07-25T21:19:31.474Z,1.50
2022-07-25T21:22:09.845Z,1.40
2022-07-25T21:24:49.427Z,1.50
2022-07-25T21:34:26.484Z,1.85
2022-07-25T21:37:17.583Z,1.40
2022-07-25T21:40:11.855Z,1.75
2022-07-25T21:42:38.662Z,1.60
2022-07-25T21:45:06.124Z,1.40
2022-07-25T21:47:32.889Z,1.20
2022-07-25T21:50:24.335Z,1.60
2022-07-25T21:52:52.968Z,1.50
2022-07-25T21:55:20.991Z,1.38
2022-07-25T21:57:48.277Z,1.48
2022-07-25T22:00:15.646Z,1.52
2022-07-25T22:02:43.851Z,1.27
2022-07-25T22:05:12.073Z,1.50
2022-07-25T22:07:39.315Z,1.60
2022-07-25T22:10:08.734Z,1.48
2022-07-25T22:12:36.737Z,1.45
2022-07-25T22:15:05.555Z,1.20
2022-07-25T22:17:49.310Z,1.33
2022-07-25T22:20:20.404Z,1.38
2022-07-25T22:22:48.590Z,1.30
2022-07-25T22:25:16.322Z,1.33
2022-07-25T22:27:43.839Z,1.20
2022-07-25T22:30:16.424Z,1.30
2022-07-25T22:32:45.064Z,1.33
2022-07-25T22:35:12.944Z,1.35
2022-07-25T22:37:39.843Z,1.40
2022-07-25T22:40:07.164Z,1.35
2022-07-25T22:42:33.991Z,1.45
2022-07-25T22:45:00.738Z,1.10
2022-07-25T22:47:27.551Z,1.05
2022-07-25T22:49:54.301Z,1.15
2022-07-25T22:52:21.093Z,1.30
2022-07-25T22:54:47.882Z,1.05
2022-07-25T22:57:14.708Z,1.25
2022-07-25T22:59:41.772Z,1.33
2022-07-25T23:02:08.611Z,1.33
2022-07-25T23:04:35.407Z,1.70
2022-07-25T23:07:02.214Z,1.33
2022-07-25T23:09:33.798Z,1.63
2022-07-25T23:12:04.449Z,1.40
2022-07-25T23:14:31.309Z,1.20
2022-07-25T23:17:16.793Z,1.70
2022-07-25T23:19:52.253Z,1.13
2022-07-25T23:22:20.805Z,1.55
2022-07-25T23:24:47.726Z,1.10
2022-07-25T23:27:15.066Z,1.10
2022-07-25T23:29:41.969Z,1.30
2022-07-25T23:32:09.311Z,1.30
2022-07-25T23:34:36.846Z,1.50
2022-07-25T23:37:04.202Z,1.30
2022-07-25T23:39:31.843Z,1.77
2022-07-25T23:41:59.797Z,1.30
2022-07-25T23:44:26.924Z,0.95
2022-07-25T23:46:56.638Z,1.63
2022-07-25T23:49:24.201Z,1.20
2022-07-25T23:51:51.194Z,1.27
2022-07-25T23:54:18.087Z,1.38
2022-07-25T23:56:44.922Z,1.15
2022-07-25T23:59:11.827Z,1.52
